weather station
Area: 11014 km2
The highest point: Tok (865 m.s.l.)
Total stations: 44
Stations online: 41
Stations offline: 3
Current weather
16°C

Meteorological map - weather stations in Středočeský

. The meteorological maps show weather information from WARIO weather stations

Weather stations Středočeský

 UpdatesNameStatusTemperatureHumidityWind speedWind direction
7.4.2020 13:04Bořanovice17.1 °C35.4 %1.0 m/s SE
7.4.2020 13:04Jílové u Prahy - Borek20.5 °C29.3 %1.2 m/s S
7.4.2020 13:04Brandýs nad Labem21.4 °C24.9 %1.1 m/s N
7.4.2020 13:05Rakovník18.3 °C34.4 %0.0 m/s NW
7.4.2020 13:04Králův Dvůr19.1 °C36.3 %1.6 m/s N
7.4.2020 13:04Chotětov18.1 °C28.1 %0.9 m/s E
7.4.2020 13:04Dolní Jirčany16.6 °C34.6 %1.6 m/s N
7.4.2020 13:04Hovorčovice19.4 °C27.1 %0.9 m/s SE
7.4.2020 13:05Sedlčany19.6 °C39.8 %1.2 m/s W
7.4.2020 13:04Kojetice16.3 °C31.3 %2.7 m/s E
7.4.2020 13:04Krásná Hora nad Vltavou19.5 °C32.2 %1.1 m/s SW
7.4.2020 13:04Květnice16.9 °C35.5 %1.6 m/s SW
7.4.2020 13:04Libeř19.0 °C27.5 %1.0 m/s NW
7.4.2020 13:05Sazená-40.0 °C %2.1 m/s E
7.4.2020 13:04Zeleneč17.3 °C33.5 %1.5 m/s SE
7.4.2020 13:04Jince21.9 °C30.7 %1.5 m/s NE
7.4.2020 13:04Cetyně17.7 °C31.3 %1.9 m/s SE
7.4.2020 13:04Olešná16.8 °C38.0 %0.0 m/s N
7.4.2020 13:04Srby17.3 °C46.7 %2.4 m/s E
29.3.2020 04:22Kralupy nad Vltavou3.1 °C70.4 %0.0 m/s SW
7.4.2020 13:04Mrač18.2 °C30.5 %1.2 m/s S
7.4.2020 13:04Velvary °C %1.9 m/s E
7.4.2020 13:05Mladá Boleslav15.3 °C29.7 %0.0 m/s SW
7.4.2020 13:04Mšecké Žehrovice19.6 °C38.0 %0.9 m/s E
7.4.2020 13:04Odolena voda15.1 °C36.7 %3.4 m/s E
7.4.2020 13:05Orlov21.5 °C35.0 %2.0 m/s E
7.4.2020 13:04Petrovice17.0 °C34.0 %1.4 m/s SW
7.4.2020 13:04Suchodol16.5 °C39.6 %0.8 m/s S
7.4.2020 13:04Husinec - Řež19.1 °C29.5 %0.7 m/s S
7.4.2020 13:04Semice17.9 °C37.3 %1.1 m/s NW
7.4.2020 13:04Slaný17.3 °C36.9 %1.1 m/s E
7.4.2020 13:05Višňová17.5 °C30.4 %1.7 m/s NW
7.4.2020 13:04Svojetice14.9 °C40.5 %1.9 m/s SW
7.4.2020 13:04Kosmonosy15.2 °C34.8 %2.5 m/s W
1.4.2020 23:44Roztoky-3.1 °C79.6 %0.8 m/s W
7.4.2020 13:05Toušice17.1 °C35.6 %0.0 m/s S
7.4.2020 13:04Třebsko17.6 °C36.8 %1.7 m/s E
7.4.2020 13:04Srby17.8 °C44.2 %1.9 m/s NE
23.3.2020 02:36Vestec-7.1 °C88.1 %0.0 m/s S
7.4.2020 13:04Vrbčany18.0 °C36.6 %1.9 m/s E
7.4.2020 13:04Všešímy17.4 °C31.4 %2.2 m/s W
7.4.2020 13:04Všetaty18.0 °C36.9 %0.8 m/s N
7.4.2020 13:04Zibohlavy17.8 °C40.2 %0.0 m/s NE
7.4.2020 13:04Divišov17.0 °C32.9 %1.8 m/s NW
Email notifications
Enter your email address to subscribe to notifications about news at warioweather.com. Your email address will not be used for any purpose other than sending these emails and will not be provided to any third party. The subscription can be ended at any time.
All data are only indicative. The portal administrator has no responsibility for potentially incorrect data and related consequences. Publishing or further sharing of content from www.warioweather.com is only allowed with written consent from WANET s.r.o.